createdAt,value
2023-03-08T00:01:23.822Z,97375.19
2023-03-08T00:03:58.496Z,97390.84
2023-03-08T00:06:27.665Z,97393.22
2023-03-08T00:08:59.993Z,97385.25
2023-03-08T00:11:28.891Z,97385.25
2023-03-08T00:13:56.065Z,97391.94
2023-03-08T00:16:23.709Z,97389.03
2023-03-08T00:18:50.642Z,97396.63
2023-03-08T00:21:19.065Z,97403.59
2023-03-08T00:23:46.932Z,97400.63
2023-03-08T00:26:14.667Z,97400.63
2023-03-08T00:28:41.755Z,97401.63
2023-03-08T00:31:12.472Z,97387.88
2023-03-08T00:33:41.296Z,97390.28
2023-03-08T00:36:17.118Z,97381.72
2023-03-08T00:38:45.844Z,97377.63
2023-03-08T00:41:12.790Z,97366.69
2023-03-08T00:43:43.658Z,97358.63
2023-03-08T00:46:12.432Z,97368.28
2023-03-08T00:48:40.268Z,97362.41
2023-03-08T00:51:07.463Z,97367.28
2023-03-08T00:53:34.706Z,97354.94
2023-03-08T00:56:01.676Z,97356.53
2023-03-08T00:58:30.850Z,97355.72
2023-03-08T01:00:59.174Z,97356.81
2023-03-08T01:03:27.056Z,97356.03
2023-03-08T01:05:56.410Z,97351.44
2023-03-08T01:08:26.371Z,97346.88
2023-03-08T01:11:00.420Z,97338.00
2023-03-08T01:13:32.498Z,97331.34
2023-03-08T01:16:00.731Z,97337.81
2023-03-08T01:18:28.563Z,97330.84
2023-03-08T01:21:04.321Z,97325.88
2023-03-08T01:23:32.328Z,97316.81
2023-03-08T01:26:06.992Z,97307.94
2023-03-08T01:28:34.614Z,97308.25
2023-03-08T01:31:04.577Z,97308.25
2023-03-08T01:33:31.947Z,97304.25
2023-03-08T01:35:59.126Z,97301.06
2023-03-08T01:38:26.277Z,97288.22
2023-03-08T01:41:01.597Z,97302.78
2023-03-08T01:43:36.526Z,97294.72
2023-03-08T01:46:29.938Z,97292.94
2023-03-08T01:49:13.555Z,97289.34
2023-03-08T01:51:59.078Z,97282.28
2023-03-08T01:54:42.701Z,97282.50
2023-03-08T01:57:21.976Z,97281.59
2023-03-08T01:59:51.790Z,97281.47
2023-03-08T02:02:29.769Z,97288.75
2023-03-08T02:04:56.633Z,97286.94
2023-03-08T02:07:23.593Z,97289.53
2023-03-08T02:09:50.780Z,97273.00
2023-03-08T02:12:18.396Z,97282.16
2023-03-08T02:14:45.743Z,97269.41
2023-03-08T02:17:13.080Z,97269.78
2023-03-08T02:20:10.973Z,97273.16
2023-03-08T02:22:40.833Z,97270.28
2023-03-08T02:25:21.090Z,97275.72
2023-03-08T02:27:50.017Z,97265.31
2023-03-08T02:30:24.170Z,97254.09
2023-03-08T02:32:51.132Z,97244.13
2023-03-08T02:35:19.097Z,97244.34
2023-03-08T02:37:45.946Z,97243.94
2023-03-08T02:40:13.799Z,97239.75
2023-03-08T02:42:40.971Z,97234.66
2023-03-08T02:45:08.973Z,97238.16
2023-03-08T02:47:35.920Z,97228.22
2023-03-08T02:50:02.727Z,97229.03
2023-03-08T02:52:29.743Z,97229.81
2023-03-08T02:54:56.508Z,97217.97
2023-03-08T02:57:23.271Z,97208.75
2023-03-08T02:59:50.010Z,97203.19
2023-03-08T03:02:16.872Z,97198.59
2023-03-08T03:04:43.684Z,97190.78
2023-03-08T03:07:10.447Z,97184.41
2023-03-08T03:09:37.231Z,97183.31
2023-03-08T03:12:04.247Z,97182.00
2023-03-08T03:14:32.771Z,97171.88
2023-03-08T03:16:59.560Z,97174.78
2023-03-08T03:19:26.435Z,97173.19
2023-03-08T03:21:53.175Z,97166.00
2023-03-08T03:24:19.978Z,97170.38
2023-03-08T03:26:49.451Z,97165.38
2023-03-08T03:29:17.864Z,97163.78
2023-03-08T03:31:45.251Z,97167.06
2023-03-08T03:34:12.244Z,97153.66
2023-03-08T03:36:39.088Z,97150.47
2023-03-08T03:39:06.418Z,97157.94
2023-03-08T03:41:34.424Z,97152.88
2023-03-08T03:44:01.317Z,97158.03
2023-03-08T03:46:28.247Z,97159.34
2023-03-08T03:48:55.002Z,97148.88
2023-03-08T03:51:23.536Z,97143.84
2023-03-08T03:53:50.841Z,97129.63
2023-03-08T03:56:22.823Z,97135.97
2023-03-08T03:58:51.175Z,97132.41
2023-03-08T04:01:28.873Z,97133.09
2023-03-08T04:03:57.086Z,97125.00
2023-03-08T04:06:27.995Z,97125.50
2023-03-08T04:09:03.989Z,97126.38
2023-03-08T04:11:40.732Z,97123.97
2023-03-08T04:14:08.549Z,97132.53
2023-03-08T04:16:38.732Z,97129.25
2023-03-08T04:19:10.957Z,97135.81
2023-03-08T04:21:37.922Z,97126.66
2023-03-08T04:24:05.408Z,97122.88
2023-03-08T04:26:32.332Z,97115.75
2023-03-08T04:28:59.303Z,97100.63
2023-03-08T04:31:29.171Z,97103.41
2023-03-08T04:33:58.105Z,97096.34
2023-03-08T04:36:25.012Z,97090.06
2023-03-08T04:38:52.751Z,97092.66
2023-03-08T04:41:20.127Z,97072.78
2023-03-08T04:43:51.764Z,97078.16
2023-03-08T04:46:21.512Z,97068.81
2023-03-08T04:48:48.873Z,97059.31
2023-03-08T04:51:16.976Z,97058.41
2023-03-08T04:53:45.333Z,97048.19
2023-03-08T04:56:14.552Z,97048.97
2023-03-08T04:58:42.487Z,97044.41
2023-03-08T05:01:29.804Z,97047.38
2023-03-08T05:03:57.869Z,97053.22
2023-03-08T05:06:27.366Z,97049.16
2023-03-08T05:08:55.807Z,97055.13
2023-03-08T05:11:26.725Z,97053.06
2023-03-08T05:13:56.352Z,97044.41
2023-03-08T05:16:24.231Z,97043.81
2023-03-08T05:18:51.044Z,97037.63
2023-03-08T05:21:22.024Z,97031.16
2023-03-08T05:23:48.840Z,97036.44
2023-03-08T05:26:17.867Z,97019.72
2023-03-08T05:28:45.492Z,97028.47
2023-03-08T05:31:16.642Z,97018.94
2023-03-08T05:33:46.536Z,97025.53
2023-03-08T05:36:15.401Z,97034.06
2023-03-08T05:38:42.645Z,97038.22
2023-03-08T05:41:14.298Z,97036.31
2023-03-08T05:43:42.509Z,97031.28
2023-03-08T05:46:14.919Z,97031.38
2023-03-08T05:48:42.482Z,97027.41
2023-03-08T05:51:14.838Z,97025.25
2023-03-08T05:53:42.493Z,97017.75
2023-03-08T05:56:28.350Z,97021.16
2023-03-08T05:58:55.383Z,97020.16
2023-03-08T06:01:26.368Z,97025.31
2023-03-08T06:03:57.254Z,97017.38
2023-03-08T06:06:27.314Z,97013.09
2023-03-08T06:08:56.326Z,97002.69
2023-03-08T06:11:23.731Z,97003.47
2023-03-08T06:13:50.666Z,97004.28
2023-03-08T06:16:17.592Z,96988.19
2023-03-08T06:18:44.635Z,96983.38
2023-03-08T06:21:18.428Z,96991.97
2023-03-08T06:23:46.093Z,96987.56
2023-03-08T06:26:14.378Z,96979.03
2023-03-08T06:28:42.028Z,96980.19
2023-03-08T06:31:14.251Z,96972.25
2023-03-08T06:33:42.214Z,96977.50
2023-03-08T06:36:18.990Z,96983.53
2023-03-08T06:38:46.833Z,96975.69
2023-03-08T06:41:16.554Z,96977.75
2023-03-08T06:43:43.690Z,96978.97
2023-03-08T06:46:14.292Z,96977.00
2023-03-08T06:48:41.741Z,96971.63
2023-03-08T06:51:09.094Z,96963.59
2023-03-08T06:53:36.181Z,96964.06
2023-03-08T06:56:04.522Z,96953.94
2023-03-08T06:58:31.685Z,96955.22
2023-03-08T07:01:00.047Z,96950.53
2023-03-08T07:03:27.922Z,96947.84
2023-03-08T07:06:06.383Z,96951.53
2023-03-08T07:08:33.354Z,96949.31
2023-03-08T07:11:01.796Z,96949.69
2023-03-08T07:13:29.745Z,96936.16
2023-03-08T07:15:57.791Z,96939.72
2023-03-08T07:18:26.166Z,96923.88
2023-03-08T07:20:56.090Z,96924.69
2023-03-08T07:23:23.746Z,96921.03
2023-03-08T07:25:50.966Z,96903.63
2023-03-08T07:28:17.838Z,96907.59
2023-03-08T07:30:53.125Z,96907.72
2023-03-08T07:33:21.551Z,96901.53
2023-03-08T07:35:49.064Z,96897.28
2023-03-08T07:38:17.151Z,96893.44
2023-03-08T07:40:44.843Z,96898.44
2023-03-08T07:43:11.939Z,96894.47
2023-03-08T07:45:39.640Z,96887.50
2023-03-08T07:48:07.227Z,96877.88
2023-03-08T07:50:33.999Z,96861.41
2023-03-08T07:53:01.308Z,96859.81
2023-03-08T07:55:28.517Z,96859.03
2023-03-08T07:57:55.367Z,96852.75
2023-03-08T08:00:22.669Z,96855.03
2023-03-08T08:02:49.519Z,96836.75
2023-03-08T08:05:16.749Z,96834.34
2023-03-08T08:07:47.857Z,96829.66
2023-03-08T08:10:14.861Z,96824.78
2023-03-08T08:12:41.596Z,96816.75
2023-03-08T08:15:08.773Z,96800.16
2023-03-08T08:17:35.655Z,96788.13
2023-03-08T08:20:02.543Z,96779.78
2023-03-08T08:22:29.297Z,96778.97
2023-03-08T08:24:56.105Z,96781.06
2023-03-08T08:27:22.873Z,96780.75
2023-03-08T08:29:50.794Z,96775.19
2023-03-08T08:32:17.636Z,96767.97
2023-03-08T08:34:47.062Z,96768.00
2023-03-08T08:37:13.896Z,96769.28
2023-03-08T08:39:40.741Z,96757.75
2023-03-08T08:42:07.977Z,96757.25
2023-03-08T08:44:34.842Z,96750.50
2023-03-08T08:47:01.687Z,96747.00
2023-03-08T08:49:28.470Z,96734.97
2023-03-08T08:51:55.271Z,96724.34
2023-03-08T08:54:22.130Z,96718.50
2023-03-08T08:56:48.944Z,96718.19
2023-03-08T08:59:16.503Z,96709.66
2023-03-08T09:01:44.059Z,96715.69
2023-03-08T09:04:13.771Z,96716.81
2023-03-08T09:06:41.012Z,96715.41
2023-03-08T09:09:08.949Z,96703.72
2023-03-08T09:11:42.174Z,96706.88
2023-03-08T09:14:15.574Z,96700.69
2023-03-08T09:16:42.459Z,96701.84
2023-03-08T09:19:09.594Z,96690.16
2023-03-08T09:21:36.620Z,96686.34
2023-03-08T09:24:08.900Z,96676.41
2023-03-08T09:26:37.786Z,96672.78
2023-03-08T09:29:07.102Z,96669.47
2023-03-08T09:31:37.548Z,96667.13
2023-03-08T09:34:08.760Z,96668.84
2023-03-08T09:36:39.366Z,96662.72
2023-03-08T09:39:08.770Z,96661.47
2023-03-08T09:41:44.890Z,96642.03
2023-03-08T09:44:57.080Z,96643.78
2023-03-08T09:47:50.835Z,96639.19
2023-03-08T09:50:24.446Z,96630.97
2023-03-08T09:53:24.590Z,96625.44
2023-03-08T09:56:24.147Z,96625.44
2023-03-08T09:59:07.663Z,96626.69
2023-03-08T10:02:29.092Z,96607.72
2023-03-08T10:05:14.154Z,96612.28
2023-03-08T10:08:09.550Z,96607.72
2023-03-08T10:11:00.233Z,96611.81
2023-03-08T10:13:50.697Z,96608.94
2023-03-08T10:16:37.797Z,96609.25
2023-03-08T10:19:32.768Z,96600.19
2023-03-08T10:22:09.195Z,96605.72
2023-03-08T10:24:55.055Z,96598.13
2023-03-08T10:27:27.195Z,96593.69
2023-03-08T10:29:58.108Z,96595.41
2023-03-08T10:32:27.342Z,96586.38
2023-03-08T10:35:04.972Z,96587.94
2023-03-08T10:37:34.612Z,96582.38
2023-03-08T10:40:07.847Z,96564.28
2023-03-08T10:42:36.186Z,96566.28
2023-03-08T10:45:22.013Z,96565.31
2023-03-08T10:48:17.517Z,96562.22
2023-03-08T10:50:44.287Z,96551.59
2023-03-08T10:53:20.902Z,96559.78
2023-03-08T10:55:52.615Z,96541.25
2023-03-08T10:58:40.571Z,96551.94
2023-03-08T11:01:28.557Z,96564.41
2023-03-08T11:04:21.463Z,96574.53
2023-03-08T11:06:48.617Z,96570.81
2023-03-08T11:09:27.863Z,96582.88
2023-03-08T11:11:56.971Z,96568.91
2023-03-08T11:14:29.368Z,96571.38
2023-03-08T11:17:07.493Z,96567.78
2023-03-08T11:20:11.758Z,96565.63
2023-03-08T11:22:59.973Z,96559.97
2023-03-08T11:25:55.491Z,96574.91
2023-03-08T11:28:40.332Z,96582.00
2023-03-08T11:31:31.369Z,96567.91
2023-03-08T11:34:17.737Z,96568.91
2023-03-08T11:37:21.794Z,96575.75
2023-03-08T11:40:19.867Z,96580.16
2023-03-08T11:43:30.429Z,96564.88
2023-03-08T11:46:41.509Z,96566.13
2023-03-08T11:49:40.733Z,96571.19
2023-03-08T11:52:40.732Z,96569.28
2023-03-08T11:55:32.578Z,96573.50
2023-03-08T11:58:33.508Z,96578.06
2023-03-08T12:01:07.541Z,96570.13
2023-03-08T12:03:43.369Z,96574.59
2023-03-08T12:06:29.338Z,96561.16
2023-03-08T12:09:20.012Z,96577.94
2023-03-08T12:11:56.951Z,96573.38
2023-03-08T12:14:31.287Z,96577.22
2023-03-08T12:17:25.024Z,96584.03
2023-03-08T12:19:52.354Z,96575.66
2023-03-08T12:22:53.945Z,96578.53
2023-03-08T12:25:34.758Z,96581.44
2023-03-08T12:28:20.723Z,96578.72
2023-03-08T12:30:47.789Z,96584.91
2023-03-08T12:33:18.118Z,96580.34
2023-03-08T12:35:59.190Z,96576.97
2023-03-08T12:38:42.393Z,96581.25
2023-03-08T12:41:30.234Z,96571.47
2023-03-08T12:44:23.345Z,96573.13
2023-03-08T12:47:03.900Z,96572.50
2023-03-08T12:49:37.404Z,96569.09
2023-03-08T12:52:25.422Z,96571.81
2023-03-08T12:55:09.088Z,96568.34
2023-03-08T12:57:57.687Z,96576.00
2023-03-08T13:00:31.877Z,96573.38
2023-03-08T13:03:12.656Z,96567.63
2023-03-08T13:05:49.699Z,96573.16
2023-03-08T13:08:29.396Z,96556.09
2023-03-08T13:11:00.838Z,96571.31
2023-03-08T13:13:53.990Z,96558.19
2023-03-08T13:16:39.887Z,96569.59
2023-03-08T13:19:14.722Z,96553.91
2023-03-08T13:21:55.730Z,96548.91
2023-03-08T13:24:55.992Z,96544.53
2023-03-08T13:28:05.168Z,96555.75
2023-03-08T13:30:44.071Z,96560.38
2023-03-08T13:33:21.771Z,96558.66
2023-03-08T13:36:06.515Z,96545.34
2023-03-08T13:38:40.160Z,96579.97
2023-03-08T13:41:07.514Z,96560.84
2023-03-08T13:43:35.925Z,96548.97
2023-03-08T13:46:10.761Z,96553.78
2023-03-08T13:48:37.893Z,96547.00
2023-03-08T13:51:05.087Z,96555.03
2023-03-08T13:53:36.419Z,96551.88
2023-03-08T13:56:06.329Z,96546.81
2023-03-08T13:58:48.424Z,96547.59
2023-03-08T14:01:22.217Z,96541.31
2023-03-08T14:03:51.525Z,96538.88
2023-03-08T14:06:22.985Z,96541.75
2023-03-08T14:08:51.450Z,96537.47
2023-03-08T14:11:27.708Z,96545.09
2023-03-08T14:13:57.664Z,96552.94
2023-03-08T14:16:34.263Z,96548.34
2023-03-08T14:19:32.416Z,96554.25
2023-03-08T14:22:21.182Z,96560.09
2023-03-08T14:25:03.046Z,96562.47
2023-03-08T14:27:46.061Z,96568.94
2023-03-08T14:30:22.929Z,96560.81
2023-03-08T14:33:18.968Z,96567.72
2023-03-08T14:35:59.877Z,96562.91
2023-03-08T14:38:34.225Z,96552.78
2023-03-08T14:41:10.138Z,96546.13
2023-03-08T14:43:37.813Z,96538.72
2023-03-08T14:46:09.065Z,96525.53
2023-03-08T14:48:38.472Z,96525.53
2023-03-08T14:51:19.809Z,96515.56
2023-03-08T14:54:06.093Z,96509.47
2023-03-08T14:56:34.834Z,96509.91
2023-03-08T14:59:05.588Z,96513.13
2023-03-08T15:01:35.465Z,96521.50
2023-03-08T15:04:12.068Z,96513.88
2023-03-08T15:06:40.728Z,96509.50
2023-03-08T15:09:08.746Z,96514.63
2023-03-08T15:11:36.267Z,96505.72
2023-03-08T15:14:04.063Z,96492.75
2023-03-08T15:16:31.130Z,96493.31
2023-03-08T15:18:58.019Z,96496.06
2023-03-08T15:21:28.273Z,96493.03
2023-03-08T15:23:56.858Z,96489.66
2023-03-08T15:26:28.664Z,96495.34
2023-03-08T15:28:55.918Z,96495.22
2023-03-08T15:31:23.105Z,96488.22
2023-03-08T15:33:50.151Z,96486.66
2023-03-08T15:36:19.650Z,96481.91
2023-03-08T15:38:46.773Z,96475.72
2023-03-08T15:41:16.420Z,96484.63
2023-03-08T15:43:45.978Z,96480.91
2023-03-08T15:46:15.331Z,96487.59
2023-03-08T15:48:45.792Z,96476.75
2023-03-08T15:51:22.365Z,96485.22
2023-03-08T15:53:49.693Z,96493.72
2023-03-08T15:56:16.987Z,96485.06
2023-03-08T15:58:43.737Z,96478.00
2023-03-08T16:01:11.830Z,96480.72
2023-03-08T16:03:38.677Z,96484.63
2023-03-08T16:06:13.840Z,96479.63
2023-03-08T16:08:42.130Z,96475.34
2023-03-08T16:11:11.343Z,96469.06
2023-03-08T16:13:38.188Z,96473.22
2023-03-08T16:16:07.062Z,96474.06
2023-03-08T16:18:36.208Z,96469.34
2023-03-08T16:21:09.009Z,96466.31
2023-03-08T16:23:37.799Z,96484.13
2023-03-08T16:26:17.081Z,96481.75
2023-03-08T16:28:47.913Z,96472.06
2023-03-08T16:31:19.755Z,96469.34
2023-03-08T16:33:46.724Z,96464.66
2023-03-08T16:36:16.901Z,96455.59
2023-03-08T16:38:43.690Z,96452.75
2023-03-08T16:41:13.888Z,96462.28
2023-03-08T16:43:48.026Z,96475.28
2023-03-08T16:46:21.194Z,96452.84
2023-03-08T16:48:50.440Z,96453.38
2023-03-08T16:51:20.798Z,96447.09
2023-03-08T16:53:48.754Z,96446.22
2023-03-08T16:56:29.648Z,96441.88
2023-03-08T16:59:00.149Z,96444.16
2023-03-08T17:01:28.584Z,96443.78
2023-03-08T17:03:56.594Z,96451.16
2023-03-08T17:06:31.322Z,96453.75
2023-03-08T17:08:59.591Z,96451.84
2023-03-08T17:11:33.139Z,96444.44
2023-03-08T17:14:10.042Z,96447.84
2023-03-08T17:16:38.119Z,96440.41
2023-03-08T17:19:07.794Z,96444.69
2023-03-08T17:21:38.621Z,96442.31
2023-03-08T17:24:09.148Z,96437.63
2023-03-08T17:26:41.502Z,96445.84
2023-03-08T17:29:08.452Z,96440.84
2023-03-08T17:31:35.453Z,96448.88
2023-03-08T17:34:02.717Z,96435.84
2023-03-08T17:36:29.956Z,96436.84
2023-03-08T17:38:57.383Z,96432.66
2023-03-08T17:41:24.212Z,96426.53
2023-03-08T17:43:51.697Z,96435.69
2023-03-08T17:46:27.165Z,96426.84
2023-03-08T17:48:55.776Z,96429.28
2023-03-08T17:51:27.069Z,96425.81
2023-03-08T17:53:56.687Z,96421.16
2023-03-08T17:56:29.391Z,96423.59
2023-03-08T17:58:59.245Z,96405.03
2023-03-08T18:01:32.218Z,96422.09
2023-03-08T18:04:01.270Z,96434.13
2023-03-08T18:06:42.129Z,96431.56
2023-03-08T18:09:16.845Z,96426.88
2023-03-08T18:11:48.739Z,96430.66
2023-03-08T18:14:18.079Z,96432.13
2023-03-08T18:16:46.705Z,96420.59
2023-03-08T18:19:13.792Z,96415.88
2023-03-08T18:21:41.535Z,96409.69
2023-03-08T18:24:12.713Z,96400.28
2023-03-08T18:26:39.527Z,96417.97
2023-03-08T18:29:07.552Z,96438.34
2023-03-08T18:31:37.102Z,96435.38
2023-03-08T18:34:05.333Z,96426.59
2023-03-08T18:36:32.880Z,96415.59
2023-03-08T18:38:59.962Z,96408.19
2023-03-08T18:41:29.549Z,96406.34
2023-03-08T18:43:58.442Z,96419.88
2023-03-08T18:46:29.148Z,96434.06
2023-03-08T18:49:00.729Z,96417.97
2023-03-08T18:51:29.928Z,96392.72
2023-03-08T18:53:58.236Z,96382.59
2023-03-08T18:56:27.351Z,96377.97
2023-03-08T18:58:57.306Z,96388.38
2023-03-08T19:01:24.338Z,96416.59
2023-03-08T19:03:52.169Z,96415.47
2023-03-08T19:06:18.979Z,96423.38
2023-03-08T19:08:45.745Z,96430.00
2023-03-08T19:11:20.471Z,96408.63
2023-03-08T19:13:48.492Z,96424.28
2023-03-08T19:16:31.839Z,96431.13
2023-03-08T19:19:11.209Z,96429.94
2023-03-08T19:21:48.539Z,96409.31
2023-03-08T19:24:18.790Z,96413.59
2023-03-08T19:26:48.852Z,96414.38
2023-03-08T19:29:23.715Z,96416.16
2023-03-08T19:31:57.186Z,96410.66
2023-03-08T19:34:31.371Z,96418.00
2023-03-08T19:36:59.494Z,96424.88
2023-03-08T19:39:30.307Z,96428.72
2023-03-08T19:42:01.981Z,96426.81
2023-03-08T19:44:30.012Z,96428.72
2023-03-08T19:46:57.145Z,96429.44
2023-03-08T19:49:32.366Z,96435.22
2023-03-08T19:52:04.465Z,96452.94
2023-03-08T19:54:32.003Z,96447.47
2023-03-08T19:57:00.151Z,96468.69
2023-03-08T19:59:27.691Z,96477.56
2023-03-08T20:01:56.134Z,96473.22
2023-03-08T20:04:24.647Z,96491.38
2023-03-08T20:06:52.068Z,96485.25
2023-03-08T20:09:22.544Z,96491.91
2023-03-08T20:11:58.455Z,96483.69
2023-03-08T20:14:27.595Z,96480.22
2023-03-08T20:16:55.727Z,96488.78
2023-03-08T20:19:22.992Z,96481.69
2023-03-08T20:21:49.818Z,96496.72
2023-03-08T20:24:18.790Z,96496.63
2023-03-08T20:26:46.173Z,96477.34
2023-03-08T20:29:13.409Z,96476.22
2023-03-08T20:31:40.218Z,96483.09
2023-03-08T20:34:07.042Z,96480.38
2023-03-08T20:36:33.874Z,96495.06
2023-03-08T20:39:01.059Z,96497.69
2023-03-08T20:41:28.933Z,96500.47
2023-03-08T20:43:56.350Z,96493.41
2023-03-08T20:46:28.248Z,96500.03
2023-03-08T20:48:55.272Z,96492.72
2023-03-08T20:51:24.046Z,96498.47
2023-03-08T20:53:54.352Z,96481.44
2023-03-08T20:56:24.246Z,96491.91
2023-03-08T20:58:54.395Z,96495.16
2023-03-08T21:01:32.201Z,96512.25
2023-03-08T21:03:59.507Z,96510.69
2023-03-08T21:06:30.696Z,96505.00
2023-03-08T21:08:59.519Z,96506.16
2023-03-08T21:11:27.448Z,96490.25
2023-03-08T21:13:55.523Z,96484.06
2023-03-08T21:16:25.205Z,96479.16
2023-03-08T21:18:58.736Z,96483.78
2023-03-08T21:21:34.126Z,96488.50
2023-03-08T21:24:16.285Z,96492.78
2023-03-08T21:26:44.522Z,96502.75
2023-03-08T21:29:18.614Z,96502.31
2023-03-08T21:31:53.431Z,96476.38
2023-03-08T21:34:21.473Z,96489.91
2023-03-08T21:36:48.552Z,96504.47
2023-03-08T21:39:15.839Z,96489.38
2023-03-08T21:41:47.635Z,96495.91
2023-03-08T21:44:19.239Z,96502.84
2023-03-08T21:46:47.891Z,96502.03
2023-03-08T21:49:26.586Z,96515.94
2023-03-08T21:51:55.751Z,96500.84
2023-03-08T21:54:25.449Z,96488.88
2023-03-08T21:56:53.039Z,96477.34
2023-03-08T21:59:23.884Z,96488.44
2023-03-08T22:01:53.978Z,96488.50
2023-03-08T22:04:21.465Z,96493.06
2023-03-08T22:06:48.326Z,96495.22
2023-03-08T22:09:15.424Z,96492.69
2023-03-08T22:11:42.351Z,96495.13
2023-03-08T22:14:10.369Z,96488.13
2023-03-08T22:16:39.844Z,96484.91
2023-03-08T22:19:06.941Z,96476.00
2023-03-08T22:21:33.956Z,96465.78
2023-03-08T22:24:02.743Z,96437.50
2023-03-08T22:26:31.386Z,96418.13
2023-03-08T22:28:59.116Z,96455.16
2023-03-08T22:31:29.429Z,96428.09
2023-03-08T22:33:57.608Z,96402.47
2023-03-08T22:36:24.927Z,96402.41
2023-03-08T22:38:54.281Z,96400.84
2023-03-08T22:41:25.284Z,96397.06
2023-03-08T22:43:53.036Z,96396.63
2023-03-08T22:46:27.803Z,96406.25
2023-03-08T22:48:58.070Z,96417.78
2023-03-08T22:51:28.237Z,96414.22
2023-03-08T22:53:56.410Z,96392.91
2023-03-08T22:56:31.727Z,96374.25
2023-03-08T22:59:00.625Z,96367.63
2023-03-08T23:01:30.508Z,96370.59
2023-03-08T23:03:59.734Z,96363.34
2023-03-08T23:06:29.163Z,96360.81
2023-03-08T23:08:59.658Z,96362.44
2023-03-08T23:11:27.932Z,96346.63
2023-03-08T23:13:54.964Z,96350.13
2023-03-08T23:16:22.217Z,96353.97
2023-03-08T23:18:52.140Z,96338.50
2023-03-08T23:21:23.091Z,96358.31
2023-03-08T23:23:50.318Z,96340.38
2023-03-08T23:26:21.195Z,96325.06
2023-03-08T23:28:48.370Z,96304.63
2023-03-08T23:31:19.692Z,96297.72
2023-03-08T23:33:48.028Z,96288.75
2023-03-08T23:36:17.738Z,96278.25
2023-03-08T23:38:44.963Z,96279.75
2023-03-08T23:41:14.474Z,96285.88
2023-03-08T23:43:42.533Z,96303.28
2023-03-08T23:46:16.222Z,96314.09
2023-03-08T23:48:45.255Z,96319.09
2023-03-08T23:51:18.430Z,96339.09
2023-03-08T23:53:49.359Z,96332.81
2023-03-08T23:56:26.478Z,96346.72
2023-03-08T23:58:59.298Z,96333.91
